sensor_id;sensor_type;location;lat;lon;timestamp;P1;durP1;ratioP1;P2;durP2;ratioP2
78382;SDS011;67668;52.294;4.692;2023-03-05T00:00:03;6.03;;;0.87;;
78382;SDS011;67668;52.294;4.692;2023-03-05T00:02:29;4.07;;;0.77;;
78382;SDS011;67668;52.294;4.692;2023-03-05T00:04:56;7.85;;;1.10;;
78382;SDS011;67668;52.294;4.692;2023-03-05T00:07:21;4.53;;;0.67;;
78382;SDS011;67668;52.294;4.692;2023-03-05T00:12:12;3.13;;;0.57;;
78382;SDS011;67668;52.294;4.692;2023-03-05T00:14:37;7.07;;;0.80;;
78382;SDS011;67668;52.294;4.692;2023-03-05T00:19:28;4.07;;;0.60;;
78382;SDS011;67668;52.294;4.692;2023-03-05T00:21:53;2.00;;;0.57;;
78382;SDS011;67668;52.294;4.692;2023-03-05T00:26:44;1.63;;;0.80;;
78382;SDS011;67668;52.294;4.692;2023-03-05T00:31:38;4.35;;;0.82;;
78382;SDS011;67668;52.294;4.692;2023-03-05T00:34:05;4.85;;;0.70;;
78382;SDS011;67668;52.294;4.692;2023-03-05T00:36:32;5.38;;;1.00;;
78382;SDS011;67668;52.294;4.692;2023-03-05T00:38:58;5.70;;;0.63;;
78382;SDS011;67668;52.294;4.692;2023-03-05T00:41:24;3.58;;;1.20;;
78382;SDS011;67668;52.294;4.692;2023-03-05T00:43:49;4.60;;;0.68;;
78382;SDS011;67668;52.294;4.692;2023-03-05T00:46:15;1.80;;;0.60;;
78382;SDS011;67668;52.294;4.692;2023-03-05T00:48:41;7.35;;;1.13;;
78382;SDS011;67668;52.294;4.692;2023-03-05T00:51:06;5.20;;;1.00;;
78382;SDS011;67668;52.294;4.692;2023-03-05T00:53:34;5.40;;;0.75;;
78382;SDS011;67668;52.294;4.692;2023-03-05T00:56:00;3.30;;;0.80;;
78382;SDS011;67668;52.294;4.692;2023-03-05T00:58:25;4.50;;;0.60;;
78382;SDS011;67668;52.294;4.692;2023-03-05T01:03:26;2.78;;;0.50;;
78382;SDS011;67668;52.294;4.692;2023-03-05T01:05:51;2.20;;;0.90;;
78382;SDS011;67668;52.294;4.692;2023-03-05T01:08:17;7.15;;;0.90;;
78382;SDS011;67668;52.294;4.692;2023-03-05T01:10:42;8.38;;;0.95;;
78382;SDS011;67668;52.294;4.692;2023-03-05T01:13:08;8.30;;;1.10;;
78382;SDS011;67668;52.294;4.692;2023-03-05T01:15:33;3.63;;;0.60;;
78382;SDS011;67668;52.294;4.692;2023-03-05T01:17:58;2.58;;;0.45;;
78382;SDS011;67668;52.294;4.692;2023-03-05T01:20:24;2.73;;;0.73;;
78382;SDS011;67668;52.294;4.692;2023-03-05T01:22:49;4.25;;;0.60;;
78382;SDS011;67668;52.294;4.692;2023-03-05T01:25:15;3.00;;;0.60;;
78382;SDS011;67668;52.294;4.692;2023-03-05T01:27:41;8.10;;;0.70;;
78382;SDS011;67668;52.294;4.692;2023-03-05T01:30:07;3.35;;;0.60;;
78382;SDS011;67668;52.294;4.692;2023-03-05T01:32:35;7.30;;;1.00;;
78382;SDS011;67668;52.294;4.692;2023-03-05T01:35:01;5.03;;;1.00;;
78382;SDS011;67668;52.294;4.692;2023-03-05T01:37:27;1.80;;;0.52;;
78382;SDS011;67668;52.294;4.692;2023-03-05T01:39:53;4.97;;;0.80;;
78382;SDS011;67668;52.294;4.692;2023-03-05T01:42:18;4.75;;;0.68;;
78382;SDS011;67668;52.294;4.692;2023-03-05T01:47:35;1.15;;;0.40;;
78382;SDS011;67668;52.294;4.692;2023-03-05T01:50:01;2.20;;;0.57;;
78382;SDS011;67668;52.294;4.692;2023-03-05T01:52:27;2.47;;;0.50;;
78382;SDS011;67668;52.294;4.692;2023-03-05T01:54:57;3.53;;;0.70;;
78382;SDS011;67668;52.294;4.692;2023-03-05T01:57:29;4.85;;;0.50;;
78382;SDS011;67668;52.294;4.692;2023-03-05T02:00:00;6.28;;;1.15;;
78382;SDS011;67668;52.294;4.692;2023-03-05T02:02:30;1.85;;;0.60;;
78382;SDS011;67668;52.294;4.692;2023-03-05T02:04:58;4.60;;;0.68;;
78382;SDS011;67668;52.294;4.692;2023-03-05T02:07:26;3.65;;;0.50;;
78382;SDS011;67668;52.294;4.692;2023-03-05T02:09:51;3.05;;;0.63;;
78382;SDS011;67668;52.294;4.692;2023-03-05T02:12:17;7.13;;;0.70;;
78382;SDS011;67668;52.294;4.692;2023-03-05T02:14:44;2.05;;;0.70;;
78382;SDS011;67668;52.294;4.692;2023-03-05T02:17:12;3.58;;;1.13;;
78382;SDS011;67668;52.294;4.692;2023-03-05T02:19:45;1.10;;;0.40;;
78382;SDS011;67668;52.294;4.692;2023-03-05T02:22:15;3.75;;;0.75;;
78382;SDS011;67668;52.294;4.692;2023-03-05T02:24:43;3.55;;;0.60;;
78382;SDS011;67668;52.294;4.692;2023-03-05T02:27:08;4.18;;;0.63;;
78382;SDS011;67668;52.294;4.692;2023-03-05T02:29:36;2.33;;;0.68;;
78382;SDS011;67668;52.294;4.692;2023-03-05T02:32:05;2.83;;;0.80;;
78382;SDS011;67668;52.294;4.692;2023-03-05T02:34:30;5.38;;;0.82;;
78382;SDS011;67668;52.294;4.692;2023-03-05T02:36:56;3.08;;;0.90;;
78382;SDS011;67668;52.294;4.692;2023-03-05T02:39:21;5.20;;;0.80;;
78382;SDS011;67668;52.294;4.692;2023-03-05T02:41:46;2.78;;;0.65;;
78382;SDS011;67668;52.294;4.692;2023-03-05T02:44:12;4.87;;;0.87;;
78382;SDS011;67668;52.294;4.692;2023-03-05T02:46:37;1.45;;;0.50;;
78382;SDS011;67668;52.294;4.692;2023-03-05T02:49:03;3.80;;;0.50;;
78382;SDS011;67668;52.294;4.692;2023-03-05T02:51:28;3.58;;;0.70;;
78382;SDS011;67668;52.294;4.692;2023-03-05T02:53:53;3.70;;;0.80;;
78382;SDS011;67668;52.294;4.692;2023-03-05T02:56:19;2.50;;;0.60;;
78382;SDS011;67668;52.294;4.692;2023-03-05T02:58:44;4.30;;;0.77;;
78382;SDS011;67668;52.294;4.692;2023-03-05T03:01:10;3.60;;;0.50;;
78382;SDS011;67668;52.294;4.692;2023-03-05T03:03:36;3.63;;;0.53;;
78382;SDS011;67668;52.294;4.692;2023-03-05T03:06:02;3.90;;;0.45;;
78382;SDS011;67668;52.294;4.692;2023-03-05T03:08:27;3.63;;;0.40;;
78382;SDS011;67668;52.294;4.692;2023-03-05T03:10:53;2.67;;;0.45;;
78382;SDS011;67668;52.294;4.692;2023-03-05T03:13:20;2.65;;;0.60;;
78382;SDS011;67668;52.294;4.692;2023-03-05T03:15:47;3.15;;;0.47;;
78382;SDS011;67668;52.294;4.692;2023-03-05T03:18:12;1.63;;;0.20;;
78382;SDS011;67668;52.294;4.692;2023-03-05T03:20:37;3.83;;;0.60;;
78382;SDS011;67668;52.294;4.692;2023-03-05T03:23:03;2.63;;;0.40;;
78382;SDS011;67668;52.294;4.692;2023-03-05T03:25:29;1.00;;;0.22;;
78382;SDS011;67668;52.294;4.692;2023-03-05T03:27:55;0.98;;;0.30;;
78382;SDS011;67668;52.294;4.692;2023-03-05T03:30:20;0.67;;;0.43;;
78382;SDS011;67668;52.294;4.692;2023-03-05T03:32:45;0.77;;;0.30;;
78382;SDS011;67668;52.294;4.692;2023-03-05T03:35:11;1.57;;;0.30;;
78382;SDS011;67668;52.294;4.692;2023-03-05T03:37:37;1.95;;;0.47;;
78382;SDS011;67668;52.294;4.692;2023-03-05T03:40:04;1.88;;;0.35;;
78382;SDS011;67668;52.294;4.692;2023-03-05T03:42:30;5.20;;;0.50;;
78382;SDS011;67668;52.294;4.692;2023-03-05T03:44:55;1.67;;;0.30;;
78382;SDS011;67668;52.294;4.692;2023-03-05T03:47:21;1.77;;;0.35;;
78382;SDS011;67668;52.294;4.692;2023-03-05T03:49:46;1.53;;;0.43;;
78382;SDS011;67668;52.294;4.692;2023-03-05T03:52:11;1.45;;;0.10;;
78382;SDS011;67668;52.294;4.692;2023-03-05T03:54:37;2.30;;;0.30;;
78382;SDS011;67668;52.294;4.692;2023-03-05T03:57:02;2.10;;;0.20;;
78382;SDS011;67668;52.294;4.692;2023-03-05T03:59:28;4.30;;;1.05;;
78382;SDS011;67668;52.294;4.692;2023-03-05T04:01:53;1.75;;;0.50;;
78382;SDS011;67668;52.294;4.692;2023-03-05T04:04:19;2.73;;;0.37;;
78382;SDS011;67668;52.294;4.692;2023-03-05T04:06:44;2.10;;;0.35;;
78382;SDS011;67668;52.294;4.692;2023-03-05T04:09:09;1.33;;;0.20;;
78382;SDS011;67668;52.294;4.692;2023-03-05T04:11:35;6.57;;;0.43;;
78382;SDS011;67668;52.294;4.692;2023-03-05T04:14:02;4.03;;;0.40;;
78382;SDS011;67668;52.294;4.692;2023-03-05T04:16:28;2.67;;;0.40;;
78382;SDS011;67668;52.294;4.692;2023-03-05T04:18:53;1.77;;;0.20;;
78382;SDS011;67668;52.294;4.692;2023-03-05T04:21:19;4.30;;;0.30;;
78382;SDS011;67668;52.294;4.692;2023-03-05T04:23:44;1.00;;;0.10;;
78382;SDS011;67668;52.294;4.692;2023-03-05T04:26:10;0.98;;;0.28;;
78382;SDS011;67668;52.294;4.692;2023-03-05T04:28:35;3.17;;;0.30;;
78382;SDS011;67668;52.294;4.692;2023-03-05T04:31:01;1.98;;;0.38;;
78382;SDS011;67668;52.294;4.692;2023-03-05T04:33:27;4.00;;;0.30;;
78382;SDS011;67668;52.294;4.692;2023-03-05T04:35:53;0.50;;;0.07;;
78382;SDS011;67668;52.294;4.692;2023-03-05T04:38:18;5.30;;;0.85;;
78382;SDS011;67668;52.294;4.692;2023-03-05T04:40:45;5.57;;;0.40;;
78382;SDS011;67668;52.294;4.692;2023-03-05T04:43:10;1.10;;;0.28;;
78382;SDS011;67668;52.294;4.692;2023-03-05T04:45:38;3.10;;;0.40;;
78382;SDS011;67668;52.294;4.692;2023-03-05T04:48:04;1.75;;;0.30;;
78382;SDS011;67668;52.294;4.692;2023-03-05T04:50:29;1.35;;;0.35;;
78382;SDS011;67668;52.294;4.692;2023-03-05T04:52:55;1.27;;;0.10;;
78382;SDS011;67668;52.294;4.692;2023-03-05T04:55:20;1.88;;;0.25;;
78382;SDS011;67668;52.294;4.692;2023-03-05T04:57:45;1.05;;;0.28;;
78382;SDS011;67668;52.294;4.692;2023-03-05T05:00:12;1.40;;;0.10;;
78382;SDS011;67668;52.294;4.692;2023-03-05T05:02:40;0.95;;;0.13;;
78382;SDS011;67668;52.294;4.692;2023-03-05T05:05:14;0.68;;;0.13;;
78382;SDS011;67668;52.294;4.692;2023-03-05T05:07:42;1.38;;;0.00;;
78382;SDS011;67668;52.294;4.692;2023-03-05T05:10:09;1.55;;;0.13;;
78382;SDS011;67668;52.294;4.692;2023-03-05T05:12:35;2.67;;;0.30;;
78382;SDS011;67668;52.294;4.692;2023-03-05T05:17:28;0.90;;;0.20;;
78382;SDS011;67668;52.294;4.692;2023-03-05T05:19:57;0.85;;;0.10;;
78382;SDS011;67668;52.294;4.692;2023-03-05T05:22:23;0.93;;;0.20;;
78382;SDS011;67668;52.294;4.692;2023-03-05T05:24:49;0.70;;;0.20;;
78382;SDS011;67668;52.294;4.692;2023-03-05T05:27:14;3.17;;;0.40;;
78382;SDS011;67668;52.294;4.692;2023-03-05T05:29:39;0.52;;;0.10;;
78382;SDS011;67668;52.294;4.692;2023-03-05T05:32:05;0.57;;;0.10;;
78382;SDS011;67668;52.294;4.692;2023-03-05T05:34:31;1.02;;;0.00;;
78382;SDS011;67668;52.294;4.692;2023-03-05T05:36:56;1.33;;;0.20;;
78382;SDS011;67668;52.294;4.692;2023-03-05T05:39:21;1.02;;;0.10;;
78382;SDS011;67668;52.294;4.692;2023-03-05T05:41:50;2.08;;;0.20;;
78382;SDS011;67668;52.294;4.692;2023-03-05T05:44:17;2.65;;;0.30;;
78382;SDS011;67668;52.294;4.692;2023-03-05T05:46:42;1.77;;;0.40;;
78382;SDS011;67668;52.294;4.692;2023-03-05T05:49:08;1.77;;;0.50;;
78382;SDS011;67668;52.294;4.692;2023-03-05T05:51:33;0.60;;;0.10;;
78382;SDS011;67668;52.294;4.692;2023-03-05T05:53:59;0.30;;;0.10;;
78382;SDS011;67668;52.294;4.692;2023-03-05T05:58:50;1.87;;;0.40;;
78382;SDS011;67668;52.294;4.692;2023-03-05T06:03:43;2.97;;;0.40;;
78382;SDS011;67668;52.294;4.692;2023-03-05T06:06:10;1.75;;;0.30;;
78382;SDS011;67668;52.294;4.692;2023-03-05T06:08:36;1.88;;;0.30;;
78382;SDS011;67668;52.294;4.692;2023-03-05T06:11:02;3.75;;;0.25;;
78382;SDS011;67668;52.294;4.692;2023-03-05T06:13:28;6.70;;;0.82;;
78382;SDS011;67668;52.294;4.692;2023-03-05T06:15:54;1.47;;;0.20;;
78382;SDS011;67668;52.294;4.692;2023-03-05T06:18:23;1.50;;;0.30;;
78382;SDS011;67668;52.294;4.692;2023-03-05T06:20:53;3.13;;;0.75;;
78382;SDS011;67668;52.294;4.692;2023-03-05T06:23:19;2.28;;;0.20;;
78382;SDS011;67668;52.294;4.692;2023-03-05T06:25:45;1.80;;;0.43;;
78382;SDS011;67668;52.294;4.692;2023-03-05T06:28:10;1.25;;;0.17;;
78382;SDS011;67668;52.294;4.692;2023-03-05T06:30:35;2.20;;;0.40;;
78382;SDS011;67668;52.294;4.692;2023-03-05T06:33:01;2.08;;;0.30;;
78382;SDS011;67668;52.294;4.692;2023-03-05T06:35:26;2.63;;;0.53;;
78382;SDS011;67668;52.294;4.692;2023-03-05T06:37:52;1.83;;;0.30;;
78382;SDS011;67668;52.294;4.692;2023-03-05T06:40:17;2.67;;;0.60;;
78382;SDS011;67668;52.294;4.692;2023-03-05T06:42:43;3.22;;;0.47;;
78382;SDS011;67668;52.294;4.692;2023-03-05T06:47:33;3.60;;;0.70;;
78382;SDS011;67668;52.294;4.692;2023-03-05T06:49:59;2.27;;;0.50;;
78382;SDS011;67668;52.294;4.692;2023-03-05T06:52:24;4.10;;;0.85;;
78382;SDS011;67668;52.294;4.692;2023-03-05T06:54:50;3.08;;;0.68;;
78382;SDS011;67668;52.294;4.692;2023-03-05T06:57:15;2.50;;;0.80;;
78382;SDS011;67668;52.294;4.692;2023-03-05T06:59:41;2.95;;;0.82;;
78382;SDS011;67668;52.294;4.692;2023-03-05T07:02:08;4.53;;;0.97;;
78382;SDS011;67668;52.294;4.692;2023-03-05T07:04:35;4.32;;;1.00;;
78382;SDS011;67668;52.294;4.692;2023-03-05T07:07:00;2.70;;;1.10;;
78382;SDS011;67668;52.294;4.692;2023-03-05T07:09:26;3.53;;;0.55;;
78382;SDS011;67668;52.294;4.692;2023-03-05T07:11:51;2.72;;;0.68;;
78382;SDS011;67668;52.294;4.692;2023-03-05T07:14:17;2.40;;;0.43;;
78382;SDS011;67668;52.294;4.692;2023-03-05T07:16:42;4.68;;;0.70;;
78382;SDS011;67668;52.294;4.692;2023-03-05T07:19:09;2.58;;;0.80;;
78382;SDS011;67668;52.294;4.692;2023-03-05T07:21:35;1.92;;;0.40;;
78382;SDS011;67668;52.294;4.692;2023-03-05T07:24:01;0.87;;;0.40;;
78382;SDS011;67668;52.294;4.692;2023-03-05T07:26:28;1.15;;;0.25;;
78382;SDS011;67668;52.294;4.692;2023-03-05T07:28:55;2.05;;;0.20;;
78382;SDS011;67668;52.294;4.692;2023-03-05T07:31:21;2.33;;;0.20;;
78382;SDS011;67668;52.294;4.692;2023-03-05T07:33:54;1.50;;;0.30;;
78382;SDS011;67668;52.294;4.692;2023-03-05T07:36:20;1.80;;;0.30;;
78382;SDS011;67668;52.294;4.692;2023-03-05T07:38:46;2.85;;;0.40;;
78382;SDS011;67668;52.294;4.692;2023-03-05T07:41:12;2.50;;;0.40;;
78382;SDS011;67668;52.294;4.692;2023-03-05T07:43:43;0.93;;;0.20;;
78382;SDS011;67668;52.294;4.692;2023-03-05T07:46:10;0.90;;;0.22;;
78382;SDS011;67668;52.294;4.692;2023-03-05T07:48:36;5.00;;;0.30;;
78382;SDS011;67668;52.294;4.692;2023-03-05T07:51:03;1.52;;;0.52;;
78382;SDS011;67668;52.294;4.692;2023-03-05T07:53:30;2.15;;;0.43;;
78382;SDS011;67668;52.294;4.692;2023-03-05T07:55:56;1.40;;;0.20;;
78382;SDS011;67668;52.294;4.692;2023-03-05T07:58:22;1.42;;;0.35;;
78382;SDS011;67668;52.294;4.692;2023-03-05T08:00:50;1.23;;;0.13;;
78382;SDS011;67668;52.294;4.692;2023-03-05T08:03:15;0.68;;;0.30;;
78382;SDS011;67668;52.294;4.692;2023-03-05T08:05:42;1.67;;;0.30;;
78382;SDS011;67668;52.294;4.692;2023-03-05T08:08:07;2.30;;;0.60;;
78382;SDS011;67668;52.294;4.692;2023-03-05T08:10:34;3.10;;;0.40;;
78382;SDS011;67668;52.294;4.692;2023-03-05T08:13:00;1.52;;;0.20;;
78382;SDS011;67668;52.294;4.692;2023-03-05T08:15:26;0.93;;;0.30;;
78382;SDS011;67668;52.294;4.692;2023-03-05T08:17:52;1.90;;;0.82;;
78382;SDS011;67668;52.294;4.692;2023-03-05T08:20:18;1.52;;;0.40;;
78382;SDS011;67668;52.294;4.692;2023-03-05T08:22:43;0.77;;;0.25;;
78382;SDS011;67668;52.294;4.692;2023-03-05T08:27:39;2.95;;;0.40;;
78382;SDS011;67668;52.294;4.692;2023-03-05T08:30:06;2.42;;;0.10;;
78382;SDS011;67668;52.294;4.692;2023-03-05T08:32:35;1.33;;;0.10;;
78382;SDS011;67668;52.294;4.692;2023-03-05T08:35:00;0.45;;;0.20;;
78382;SDS011;67668;52.294;4.692;2023-03-05T08:37:28;0.30;;;0.08;;
78382;SDS011;67668;52.294;4.692;2023-03-05T08:39:54;4.50;;;0.63;;
78382;SDS011;67668;52.294;4.692;2023-03-05T08:42:20;2.03;;;0.17;;
78382;SDS011;67668;52.294;4.692;2023-03-05T08:44:46;2.42;;;0.25;;
78382;SDS011;67668;52.294;4.692;2023-03-05T08:47:11;0.57;;;0.20;;
78382;SDS011;67668;52.294;4.692;2023-03-05T08:52:02;3.37;;;0.83;;
78382;SDS011;67668;52.294;4.692;2023-03-05T08:54:27;2.63;;;0.40;;
78382;SDS011;67668;52.294;4.692;2023-03-05T08:56:53;2.42;;;0.40;;
78382;SDS011;67668;52.294;4.692;2023-03-05T08:59:18;2.80;;;0.33;;
78382;SDS011;67668;52.294;4.692;2023-03-05T09:01:44;0.53;;;0.37;;
78382;SDS011;67668;52.294;4.692;2023-03-05T09:04:09;1.13;;;0.40;;
78382;SDS011;67668;52.294;4.692;2023-03-05T09:06:34;3.92;;;0.40;;
78382;SDS011;67668;52.294;4.692;2023-03-05T09:09:04;2.55;;;0.50;;
78382;SDS011;67668;52.294;4.692;2023-03-05T09:11:31;2.25;;;0.52;;
78382;SDS011;67668;52.294;4.692;2023-03-05T09:13:59;0.68;;;0.32;;
78382;SDS011;67668;52.294;4.692;2023-03-05T09:16:25;2.45;;;0.30;;
78382;SDS011;67668;52.294;4.692;2023-03-05T09:18:51;0.87;;;0.30;;
78382;SDS011;67668;52.294;4.692;2023-03-05T09:21:16;0.80;;;0.32;;
78382;SDS011;67668;52.294;4.692;2023-03-05T09:26:09;2.60;;;0.25;;
78382;SDS011;67668;52.294;4.692;2023-03-05T09:28:36;0.98;;;0.13;;
78382;SDS011;67668;52.294;4.692;2023-03-05T09:31:03;1.75;;;0.40;;
78382;SDS011;67668;52.294;4.692;2023-03-05T09:33:32;0.95;;;0.35;;
78382;SDS011;67668;52.294;4.692;2023-03-05T09:35:58;2.05;;;0.40;;
78382;SDS011;67668;52.294;4.692;2023-03-05T09:38:24;1.10;;;0.20;;
78382;SDS011;67668;52.294;4.692;2023-03-05T09:43:45;1.02;;;0.30;;
78382;SDS011;67668;52.294;4.692;2023-03-05T09:51:20;1.05;;;0.20;;
78382;SDS011;67668;52.294;4.692;2023-03-05T09:56:27;1.60;;;0.22;;
78382;SDS011;67668;52.294;4.692;2023-03-05T10:06:55;2.10;;;0.30;;
78382;SDS011;67668;52.294;4.692;2023-03-05T10:12:11;1.70;;;0.30;;
78382;SDS011;67668;52.294;4.692;2023-03-05T10:14:38;4.57;;;0.80;;
78382;SDS011;67668;52.294;4.692;2023-03-05T10:20:13;1.52;;;0.60;;
78382;SDS011;67668;52.294;4.692;2023-03-05T10:22:53;1.55;;;0.43;;
78382;SDS011;67668;52.294;4.692;2023-03-05T10:25:25;3.78;;;0.90;;
78382;SDS011;67668;52.294;4.692;2023-03-05T10:28:14;1.30;;;0.30;;
78382;SDS011;67668;52.294;4.692;2023-03-05T10:44:35;0.80;;;0.30;;
78382;SDS011;67668;52.294;4.692;2023-03-05T10:47:10;1.10;;;0.40;;
78382;SDS011;67668;52.294;4.692;2023-03-05T10:49:43;3.03;;;0.50;;
78382;SDS011;67668;52.294;4.692;2023-03-05T10:52:16;2.00;;;0.40;;
78382;SDS011;67668;52.294;4.692;2023-03-05T10:54:46;0.60;;;0.20;;
78382;SDS011;67668;52.294;4.692;2023-03-05T10:57:15;4.28;;;0.38;;
78382;SDS011;67668;52.294;4.692;2023-03-05T10:59:49;3.97;;;0.60;;
78382;SDS011;67668;52.294;4.692;2023-03-05T11:02:17;4.40;;;0.73;;
78382;SDS011;67668;52.294;4.692;2023-03-05T11:04:44;1.30;;;0.22;;
78382;SDS011;67668;52.294;4.692;2023-03-05T11:09:39;3.22;;;0.38;;
78382;SDS011;67668;52.294;4.692;2023-03-05T11:12:10;2.20;;;0.22;;
78382;SDS011;67668;52.294;4.692;2023-03-05T11:15:01;1.63;;;0.45;;
78382;SDS011;67668;52.294;4.692;2023-03-05T11:23:04;2.40;;;0.25;;
78382;SDS011;67668;52.294;4.692;2023-03-05T11:28:35;5.32;;;0.70;;
78382;SDS011;67668;52.294;4.692;2023-03-05T11:31:05;3.58;;;0.50;;
78382;SDS011;67668;52.294;4.692;2023-03-05T11:33:39;1.80;;;0.30;;
78382;SDS011;67668;52.294;4.692;2023-03-05T11:36:25;3.67;;;0.93;;
78382;SDS011;67668;52.294;4.692;2023-03-05T11:39:14;2.45;;;0.30;;
78382;SDS011;67668;52.294;4.692;2023-03-05T11:42:02;3.17;;;0.30;;
78382;SDS011;67668;52.294;4.692;2023-03-05T11:44:44;1.17;;;0.20;;
78382;SDS011;67668;52.294;4.692;2023-03-05T11:52:45;0.85;;;0.30;;
78382;SDS011;67668;52.294;4.692;2023-03-05T11:55:19;4.53;;;0.68;;
78382;SDS011;67668;52.294;4.692;2023-03-05T12:00:38;4.43;;;0.77;;
78382;SDS011;67668;52.294;4.692;2023-03-05T12:03:10;0.50;;;0.20;;
78382;SDS011;67668;52.294;4.692;2023-03-05T12:05:42;1.80;;;0.40;;
78382;SDS011;67668;52.294;4.692;2023-03-05T12:08:12;0.90;;;0.20;;
78382;SDS011;67668;52.294;4.692;2023-03-05T12:10:41;2.30;;;0.20;;
78382;SDS011;67668;52.294;4.692;2023-03-05T12:23:42;9.98;;;7.60;;
78382;SDS011;67668;52.294;4.692;2023-03-05T12:26:13;49.25;;;29.42;;
78382;SDS011;67668;52.294;4.692;2023-03-05T12:37:01;32.58;;;25.48;;
78382;SDS011;67668;52.294;4.692;2023-03-05T13:03:10;271.58;;;107.18;;
78382;SDS011;67668;52.294;4.692;2023-03-05T13:05:59;200.75;;;84.63;;
78382;SDS011;67668;52.294;4.692;2023-03-05T13:10:59;87.20;;;35.30;;
78382;SDS011;67668;52.294;4.692;2023-03-05T13:13:35;70.22;;;31.13;;
78382;SDS011;67668;52.294;4.692;2023-03-05T13:16:02;55.30;;;20.88;;
78382;SDS011;67668;52.294;4.692;2023-03-05T13:21:02;25.08;;;9.90;;
78382;SDS011;67668;52.294;4.692;2023-03-05T13:23:29;13.63;;;5.82;;
78382;SDS011;67668;52.294;4.692;2023-03-05T13:26:10;12.90;;;5.38;;
78382;SDS011;67668;52.294;4.692;2023-03-05T13:28:43;13.00;;;5.35;;
78382;SDS011;67668;52.294;4.692;2023-03-05T13:31:11;10.45;;;2.67;;
78382;SDS011;67668;52.294;4.692;2023-03-05T13:33:39;12.32;;;2.85;;
78382;SDS011;67668;52.294;4.692;2023-03-05T13:38:42;6.55;;;1.23;;
78382;SDS011;67668;52.294;4.692;2023-03-05T13:43:45;3.03;;;0.90;;
78382;SDS011;67668;52.294;4.692;2023-03-05T13:46:25;2.85;;;0.50;;
78382;SDS011;67668;52.294;4.692;2023-03-05T13:48:51;0.77;;;0.40;;
78382;SDS011;67668;52.294;4.692;2023-03-05T13:53:42;2.40;;;0.30;;
78382;SDS011;67668;52.294;4.692;2023-03-05T13:56:12;2.03;;;0.35;;
78382;SDS011;67668;52.294;4.692;2023-03-05T13:58:49;5.32;;;0.50;;
78382;SDS011;67668;52.294;4.692;2023-03-05T14:04:07;1.65;;;0.40;;
78382;SDS011;67668;52.294;4.692;2023-03-05T14:11:56;2.45;;;0.38;;
78382;SDS011;67668;52.294;4.692;2023-03-05T14:14:27;1.67;;;0.47;;
78382;SDS011;67668;52.294;4.692;2023-03-05T14:16:53;1.38;;;0.25;;
78382;SDS011;67668;52.294;4.692;2023-03-05T14:19:52;2.60;;;0.25;;
78382;SDS011;67668;52.294;4.692;2023-03-05T14:22:33;1.75;;;0.47;;
78382;SDS011;67668;52.294;4.692;2023-03-05T14:25:01;6.40;;;0.93;;
78382;SDS011;67668;52.294;4.692;2023-03-05T14:27:32;2.72;;;0.35;;
78382;SDS011;67668;52.294;4.692;2023-03-05T14:29:59;0.68;;;0.20;;
78382;SDS011;67668;52.294;4.692;2023-03-05T14:32:34;1.50;;;0.20;;
78382;SDS011;67668;52.294;4.692;2023-03-05T14:35:01;2.40;;;0.50;;
78382;SDS011;67668;52.294;4.692;2023-03-05T14:37:39;1.58;;;0.32;;
78382;SDS011;67668;52.294;4.692;2023-03-05T14:42:48;1.85;;;0.30;;
78382;SDS011;67668;52.294;4.692;2023-03-05T14:47:42;1.65;;;0.63;;
78382;SDS011;67668;52.294;4.692;2023-03-05T14:50:29;3.08;;;0.20;;
78382;SDS011;67668;52.294;4.692;2023-03-05T14:52:59;1.98;;;0.50;;
78382;SDS011;67668;52.294;4.692;2023-03-05T14:55:28;1.55;;;0.50;;
78382;SDS011;67668;52.294;4.692;2023-03-05T14:58:00;2.00;;;0.20;;
78382;SDS011;67668;52.294;4.692;2023-03-05T15:00:28;1.77;;;0.20;;
78382;SDS011;67668;52.294;4.692;2023-03-05T15:02:54;2.97;;;0.47;;
78382;SDS011;67668;52.294;4.692;2023-03-05T15:05:21;1.60;;;0.40;;
78382;SDS011;67668;52.294;4.692;2023-03-05T15:10:14;1.85;;;0.20;;
78382;SDS011;67668;52.294;4.692;2023-03-05T15:12:40;1.80;;;0.70;;
78382;SDS011;67668;52.294;4.692;2023-03-05T15:15:06;3.20;;;0.10;;
78382;SDS011;67668;52.294;4.692;2023-03-05T15:17:35;0.75;;;0.10;;
78382;SDS011;67668;52.294;4.692;2023-03-05T15:20:03;2.05;;;0.60;;
78382;SDS011;67668;52.294;4.692;2023-03-05T15:22:34;0.70;;;0.20;;
78382;SDS011;67668;52.294;4.692;2023-03-05T15:25:00;2.15;;;0.63;;
78382;SDS011;67668;52.294;4.692;2023-03-05T15:29:52;2.03;;;0.50;;
78382;SDS011;67668;52.294;4.692;2023-03-05T15:32:17;4.38;;;0.50;;
78382;SDS011;67668;52.294;4.692;2023-03-05T15:34:42;3.53;;;0.60;;
78382;SDS011;67668;52.294;4.692;2023-03-05T15:39:33;1.58;;;0.45;;
78382;SDS011;67668;52.294;4.692;2023-03-05T15:41:59;0.57;;;0.25;;
78382;SDS011;67668;52.294;4.692;2023-03-05T15:46:50;0.23;;;0.10;;
78382;SDS011;67668;52.294;4.692;2023-03-05T15:49:15;2.40;;;0.60;;
78382;SDS011;67668;52.294;4.692;2023-03-05T15:54:06;2.70;;;0.50;;
78382;SDS011;67668;52.294;4.692;2023-03-05T15:58:57;2.43;;;0.50;;
78382;SDS011;67668;52.294;4.692;2023-03-05T16:01:22;3.40;;;0.60;;
78382;SDS011;67668;52.294;4.692;2023-03-05T16:06:14;0.47;;;0.10;;
78382;SDS011;67668;52.294;4.692;2023-03-05T16:08:44;0.68;;;0.20;;
78382;SDS011;67668;52.294;4.692;2023-03-05T16:11:10;3.00;;;0.60;;
78382;SDS011;67668;52.294;4.692;2023-03-05T16:13:36;0.88;;;0.30;;
78382;SDS011;67668;52.294;4.692;2023-03-05T16:18:28;2.05;;;0.50;;
78382;SDS011;67668;52.294;4.692;2023-03-05T16:20:56;2.08;;;0.28;;
78382;SDS011;67668;52.294;4.692;2023-03-05T16:25:47;1.13;;;0.47;;
78382;SDS011;67668;52.294;4.692;2023-03-05T16:30:38;1.65;;;0.73;;
78382;SDS011;67668;52.294;4.692;2023-03-05T16:35:29;4.53;;;0.90;;
78382;SDS011;67668;52.294;4.692;2023-03-05T16:40:20;1.57;;;0.40;;
78382;SDS011;67668;52.294;4.692;2023-03-05T16:45:11;0.60;;;0.30;;
78382;SDS011;67668;52.294;4.692;2023-03-05T16:50:02;1.73;;;0.40;;
78382;SDS011;67668;52.294;4.692;2023-03-05T16:52:28;3.15;;;0.40;;
78382;SDS011;67668;52.294;4.692;2023-03-05T16:57:19;2.72;;;0.60;;
78382;SDS011;67668;52.294;4.692;2023-03-05T16:59:47;3.65;;;0.55;;
78382;SDS011;67668;52.294;4.692;2023-03-05T17:04:39;1.30;;;0.40;;
78382;SDS011;67668;52.294;4.692;2023-03-05T17:09:31;2.28;;;0.65;;
78382;SDS011;67668;52.294;4.692;2023-03-05T17:14:21;0.60;;;0.20;;
78382;SDS011;67668;52.294;4.692;2023-03-05T17:19:12;2.60;;;0.63;;
78382;SDS011;67668;52.294;4.692;2023-03-05T17:24:03;3.17;;;0.43;;
78382;SDS011;67668;52.294;4.692;2023-03-05T17:28:57;1.92;;;0.40;;
78382;SDS011;67668;52.294;4.692;2023-03-05T17:31:22;2.22;;;0.60;;
78382;SDS011;67668;52.294;4.692;2023-03-05T17:36:18;5.85;;;0.80;;
78382;SDS011;67668;52.294;4.692;2023-03-05T17:38:45;3.03;;;0.43;;
78382;SDS011;67668;52.294;4.692;2023-03-05T17:41:12;2.20;;;0.43;;
78382;SDS011;67668;52.294;4.692;2023-03-05T17:43:38;2.72;;;0.30;;
78382;SDS011;67668;52.294;4.692;2023-03-05T17:48:29;3.47;;;0.52;;
78382;SDS011;67668;52.294;4.692;2023-03-05T17:50:56;4.55;;;0.40;;
78382;SDS011;67668;52.294;4.692;2023-03-05T17:53:22;1.13;;;0.47;;
78382;SDS011;67668;52.294;4.692;2023-03-05T17:58:13;1.63;;;0.38;;
78382;SDS011;67668;52.294;4.692;2023-03-05T18:03:04;3.23;;;1.03;;
78382;SDS011;67668;52.294;4.692;2023-03-05T18:07:55;1.40;;;0.60;;
78382;SDS011;67668;52.294;4.692;2023-03-05T18:12:47;2.53;;;0.55;;
78382;SDS011;67668;52.294;4.692;2023-03-05T18:17:39;2.55;;;0.85;;
78382;SDS011;67668;52.294;4.692;2023-03-05T18:22:31;2.00;;;0.55;;
78382;SDS011;67668;52.294;4.692;2023-03-05T18:24:57;4.10;;;1.00;;
78382;SDS011;67668;52.294;4.692;2023-03-05T18:29:50;1.58;;;0.95;;
78382;SDS011;67668;52.294;4.692;2023-03-05T18:32:20;2.65;;;0.70;;
78382;SDS011;67668;52.294;4.692;2023-03-05T18:34:45;1.23;;;0.77;;
78382;SDS011;67668;52.294;4.692;2023-03-05T18:39:36;2.03;;;0.70;;
78382;SDS011;67668;52.294;4.692;2023-03-05T18:44:27;2.80;;;1.13;;